Ever Unicorn — 9V7963 — position and weather

sailwx.info

Track history (hours):
 
Tides and Currents Weather Stations Pressure Air Temp Water Temp Dewpoint Dewpoint Depression Visibility Wind Speed Wind Dir Waves Ship Positions

Ever Unicorn

Last reported at 2016-May-16 07:21 UTC. Time now 2016-May-27 14:17 UTC.
Position N 24°42' E 119°29'.
Warning: this ship's position is 11 days out of date.

Length 285 m; draft 11.3 m.

Type: Ship (hazmat cat D). MMSI: 564995000.

Date/timePositionNaut miles runAvg speedWind from/ knotsBaromVisibWave heightAir tempDewpointWater temp
2016-May-16 07:21N 24°42' E 119°29'1417.8
2016-May-16 06:33N 24°32' E 119°18'28817.8
2016-May-15 14:21N 22°19' E 114°40'2613.7
2016-May-15 12:29N 22°34' E 114°17'1 0.9
2016-May-15 11:27N 22°34' E 114°16'0 0.0
2016-May-15 00:33N 22°34' E 114°16'0 0.0
2016-May-14 16:27N 22°34' E 114°16'0 0.0
2016-May-14 11:33N 22°34' E 114°16'19 1.5
2016-May-13 22:27N 22°18' E 114°28'1112.2
2016-May-13 21:33N 22°09' E 114°23'1110.2
2016-May-13 20:31N 22°10' E 114°11'1111.3
2016-May-13 19:33N 22°20' E 114°05'1110.9
2016-May-13 18:33N 22°23' E 113°54'4 1.0
2016-May-13 14:18N 22°27' E 113°53'0 0.0
2016-May-13 13:24N 22°27' E 113°53'0 0.0
2016-May-13 12:30N 22°27' E 113°53'0 0.0
2016-May-13 11:25N 22°27' E 113°53'0 0.0
2016-May-13 10:24N 22°27' E 113°53'0 0.0
2016-May-13 09:06N 22°27' E 113°53'0 0.0
2016-May-13 08:30N 22°27' E 113°53'0 0.0
2016-May-13 07:24N 22°27' E 113°53'0 0.0
2016-May-13 06:30N 22°27' E 113°53'0 0.0
2016-May-13 05:30N 22°27' E 113°53'2 2.2
2016-May-13 04:33N 22°25' E 113°53'9 9.1
2016-May-13 03:33N 22°21' E 114°02'1110.4
2016-May-13 02:29N 22°13' E 114°10'7 7.5
2016-May-13 01:34N 22°08' E 114°15'9 8.8
2016-May-13 00:30N 22°07' E 114°25'3 3.6
2016-May-12 23:33N 22°07' E 114°29'24511.0
2016-May-12 01:10N 24°11' E 118°19'712.2
2016-May-12 00:33N 24°16' E 118°14'1111.4
2016-May-11 23:34N 24°25' E 118°05'5 4.9
2016-May-11 22:33N 24°27' E 118°00'0 0.0
2016-May-11 21:33N 24°27' E 118°00'0 0.0
2016-May-11 20:33N 24°27' E 118°00'0 0.0
2016-May-11 19:33N 24°27' E 118°00'0 0.0
2016-May-11 18:33N 24°27' E 118°00'0 0.0
2016-May-11 17:33N 24°27' E 118°00'0 0.0
2016-May-11 16:33N 24°27' E 118°00'0 0.0
2016-May-11 15:33N 24°27' E 118°00'0 0.0
2016-May-11 14:33N 24°27' E 118°00'0 0.0
2016-May-11 13:33N 24°27' E 118°00'0 0.0
2016-May-11 12:33N 24°27' E 118°00'8 7.5
2016-May-11 11:33N 24°23' E 118°07'7 7.1
2016-May-11 10:33N 24°18' E 118°13'8 8.2
2016-May-11 09:32N 24°17' E 118°23'0 0.2
2016-May-11 08:12N 24°18' E 118°22'0 0.0
2016-May-11 07:30N 24°18' E 118°22'0 0.0
2016-May-11 06:21N 24°18' E 118°22'0 0.0
2016-May-11 04:24N 24°18' E 118°22'0 0.0
2016-May-11 03:27N 24°18' E 118°22'0 0.0
2016-May-11 02:27N 24°18' E 118°22'0 0.1
2016-May-11 01:27N 24°18' E 118°22'0 0.0
2016-May-11 00:27N 24°18' E 118°22'0 0.0
2016-May-10 23:30N 24°18' E 118°22'0 0.0
2016-May-10 22:09N 24°18' E 118°22'0 0.1
2016-May-10 21:30N 24°18' E 118°22'0 0.0
2016-May-10 20:33N 24°18' E 118°22'0 0.0
2016-May-10 19:30N 24°18' E 118°22'52 8.7
2016-May-10 13:33N 24°27' E 119°18'2610.6
2016-May-10 11:08N 24°38' E 119°44'  
2016-May-07 14:04N 33°23' E 128°08'1114.7
2016-May-07 13:17N 33°33' E 128°14'1414.7
2016-May-07 12:21N 33°44' E 128°23'2814.7
2016-May-07 10:27N 34°08' E 128°42'  
Track history (hours):
 
Tides and Currents Weather Stations Pressure Air Temp Water Temp Dewpoint Dewpoint Depression Visibility Wind Speed Wind Dir Waves Ship Positions

Ever Unicorn

Last reported at 2016-May-16 07:21 UTC. Time now 2016-May-27 14:17 UTC.
Position N 24°42' E 119°29'.
Warning: this ship's position is 11 days out of date.

Length 285 m; draft 11.3 m.

Type: Ship (hazmat cat D). MMSI: 564995000.

Date/timePositionNaut miles runAvg speedWind from/ knotsBaromVisibWave heightAir tempDewpointWater temp
2016-May-16 07:21N 24°42' E 119°29'1417.8
2016-May-16 06:33N 24°32' E 119°18'28817.8
2016-May-15 14:21N 22°19' E 114°40'2613.7
2016-May-15 12:29N 22°34' E 114°17'1 0.9
2016-May-15 11:27N 22°34' E 114°16'0 0.0
2016-May-15 00:33N 22°34' E 114°16'0 0.0
2016-May-14 16:27N 22°34' E 114°16'0 0.0
2016-May-14 11:33N 22°34' E 114°16'19 1.5
2016-May-13 22:27N 22°18' E 114°28'1112.2
2016-May-13 21:33N 22°09' E 114°23'1110.2
2016-May-13 20:31N 22°10' E 114°11'1111.3
2016-May-13 19:33N 22°20' E 114°05'1110.9
2016-May-13 18:33N 22°23' E 113°54'4 1.0
2016-May-13 14:18N 22°27' E 113°53'0 0.0
2016-May-13 13:24N 22°27' E 113°53'0 0.0
2016-May-13 12:30N 22°27' E 113°53'0 0.0
2016-May-13 11:25N 22°27' E 113°53'0 0.0
2016-May-13 10:24N 22°27' E 113°53'0 0.0
2016-May-13 09:06N 22°27' E 113°53'0 0.0
2016-May-13 08:30N 22°27' E 113°53'0 0.0
2016-May-13 07:24N 22°27' E 113°53'0 0.0
2016-May-13 06:30N 22°27' E 113°53'0 0.0
2016-May-13 05:30N 22°27' E 113°53'2 2.2
2016-May-13 04:33N 22°25' E 113°53'9 9.1
2016-May-13 03:33N 22°21' E 114°02'1110.4
2016-May-13 02:29N 22°13' E 114°10'7 7.5
2016-May-13 01:34N 22°08' E 114°15'9 8.8
2016-May-13 00:30N 22°07' E 114°25'3 3.6
2016-May-12 23:33N 22°07' E 114°29'24511.0
2016-May-12 01:10N 24°11' E 118°19'712.2
2016-May-12 00:33N 24°16' E 118°14'1111.4
2016-May-11 23:34N 24°25' E 118°05'5 4.9
2016-May-11 22:33N 24°27' E 118°00'0 0.0
2016-May-11 21:33N 24°27' E 118°00'0 0.0
2016-May-11 20:33N 24°27' E 118°00'0 0.0
2016-May-11 19:33N 24°27' E 118°00'0 0.0
2016-May-11 18:33N 24°27' E 118°00'0 0.0
2016-May-11 17:33N 24°27' E 118°00'0 0.0
2016-May-11 16:33N 24°27' E 118°00'0 0.0
2016-May-11 15:33N 24°27' E 118°00'0 0.0
2016-May-11 14:33N 24°27' E 118°00'0 0.0
2016-May-11 13:33N 24°27' E 118°00'0 0.0
2016-May-11 12:33N 24°27' E 118°00'8 7.5
2016-May-11 11:33N 24°23' E 118°07'7 7.1
2016-May-11 10:33N 24°18' E 118°13'8 8.2
2016-May-11 09:32N 24°17' E 118°23'0 0.2
2016-May-11 08:12N 24°18' E 118°22'0 0.0
2016-May-11 07:30N 24°18' E 118°22'0 0.0
2016-May-11 06:21N 24°18' E 118°22'0 0.0
2016-May-11 04:24N 24°18' E 118°22'0 0.0
2016-May-11 03:27N 24°18' E 118°22'0 0.0
2016-May-11 02:27N 24°18' E 118°22'0 0.1
2016-May-11 01:27N 24°18' E 118°22'0 0.0
2016-May-11 00:27N 24°18' E 118°22'0 0.0
2016-May-10 23:30N 24°18' E 118°22'0 0.0
2016-May-10 22:09N 24°18' E 118°22'0 0.1
2016-May-10 21:30N 24°18' E 118°22'0 0.0
2016-May-10 20:33N 24°18' E 118°22'0 0.0
2016-May-10 19:30N 24°18' E 118°22'52 8.7
2016-May-10 13:33N 24°27' E 119°18'2610.6
2016-May-10 11:08N 24°38' E 119°44'  
2016-May-07 14:04N 33°23' E 128°08'1114.7
2016-May-07 13:17N 33°33' E 128°14'1414.7
2016-May-07 12:21N 33°44' E 128°23'2814.7
2016-May-07 10:27N 34°08' E 128°42'  

Dump ship's entire track history